createdAt,value
2022-12-15T00:02:25.642Z,70.18
2022-12-15T00:05:11.186Z,69.41
2022-12-15T00:07:57.073Z,69.69
2022-12-15T00:10:43.402Z,69.26
2022-12-15T00:13:31.871Z,69.18
2022-12-15T00:16:18.489Z,69.29
2022-12-15T00:19:06.504Z,69.57
2022-12-15T00:21:52.179Z,69.03
2022-12-15T00:24:38.115Z,68.50
2022-12-15T00:27:24.567Z,68.71
2022-12-15T00:30:10.438Z,68.83
2022-12-15T00:32:57.712Z,69.29
2022-12-15T00:35:43.076Z,68.96
2022-12-15T00:38:32.761Z,68.98
2022-12-15T00:41:01.625Z,68.67
2022-12-15T00:43:34.441Z,69.19
2022-12-15T00:46:20.724Z,69.52
2022-12-15T00:48:48.375Z,69.06
2022-12-15T00:51:16.499Z,69.58
2022-12-15T00:54:02.761Z,70.92
2022-12-15T00:56:48.659Z,70.76
2022-12-15T00:59:35.517Z,71.02
2022-12-15T01:02:24.006Z,70.66
2022-12-15T01:05:09.389Z,71.24
2022-12-15T01:07:55.299Z,69.89
2022-12-15T01:10:41.230Z,70.20
2022-12-15T01:13:32.107Z,69.39
2022-12-15T01:16:18.209Z,68.77
2022-12-15T01:19:04.171Z,68.98
2022-12-15T01:21:32.435Z,68.64
2022-12-15T01:23:59.479Z,68.79
2022-12-15T01:26:26.520Z,69.17
2022-12-15T01:28:53.575Z,68.83
2022-12-15T01:31:20.690Z,68.68
2022-12-15T01:33:47.866Z,68.66
2022-12-15T01:36:15.031Z,68.55
2022-12-15T01:38:42.824Z,68.41
2022-12-15T01:41:15.298Z,68.80
2022-12-15T01:43:42.394Z,69.14
2022-12-15T01:46:18.230Z,67.86
2022-12-15T01:49:16.855Z,68.02
2022-12-15T01:51:49.988Z,68.45
2022-12-15T01:54:35.970Z,68.45
2022-12-15T01:57:14.076Z,69.80
2022-12-15T01:59:50.961Z,68.88
2022-12-15T02:02:22.797Z,69.31
2022-12-15T02:04:54.102Z,68.52
2022-12-15T02:07:24.643Z,68.40
2022-12-15T02:14:36.934Z,68.51
2022-12-15T02:17:47.460Z,68.23
2022-12-15T02:20:55.061Z,68.13
2022-12-15T02:23:58.972Z,68.87
2022-12-15T02:26:51.340Z,70.50
2022-12-15T02:30:12.347Z,70.28
2022-12-15T02:33:24.628Z,69.26
2022-12-15T02:36:06.629Z,69.15
2022-12-15T02:38:39.084Z,69.61
2022-12-15T02:41:44.052Z,69.38
2022-12-15T02:44:23.487Z,68.96
2022-12-15T02:47:22.812Z,68.79
2022-12-15T02:50:11.758Z,70.65
2022-12-15T02:53:04.669Z,69.52
2022-12-15T02:55:51.524Z,69.60
2022-12-15T02:58:52.777Z,69.78
2022-12-15T03:01:29.197Z,68.96
2022-12-15T03:03:58.109Z,69.34
2022-12-15T03:06:26.965Z,69.43
2022-12-15T03:08:54.004Z,67.85
2022-12-15T03:11:23.564Z,68.56
2022-12-15T03:13:54.022Z,69.87
2022-12-15T03:16:21.726Z,70.88
2022-12-15T03:18:48.708Z,70.68
2022-12-15T03:21:15.705Z,69.38
2022-12-15T03:23:42.760Z,69.31
2022-12-15T03:26:09.767Z,68.58
2022-12-15T03:28:36.703Z,69.60
2022-12-15T03:31:04.154Z,69.23
2022-12-15T03:33:34.140Z,68.63
2022-12-15T03:36:01.530Z,68.08
2022-12-15T03:38:28.746Z,68.43
2022-12-15T03:40:55.712Z,67.76
2022-12-15T03:43:22.838Z,68.15
2022-12-15T03:45:49.944Z,67.66
2022-12-15T03:48:17.001Z,67.59
2022-12-15T03:50:44.549Z,67.23
2022-12-15T03:53:11.504Z,67.24
2022-12-15T03:55:38.448Z,67.27
2022-12-15T03:58:05.411Z,67.43
2022-12-15T04:00:33.151Z,67.77
2022-12-15T04:03:00.221Z,68.79
2022-12-15T04:05:31.247Z,67.66
2022-12-15T04:08:00.045Z,68.11
2022-12-15T04:10:34.512Z,68.45
2022-12-15T04:13:10.269Z,68.84
2022-12-15T04:15:39.923Z,68.65
2022-12-15T04:18:10.567Z,69.17
2022-12-15T04:20:40.214Z,68.86
2022-12-15T04:23:08.111Z,68.54
2022-12-15T04:25:54.886Z,69.12
2022-12-15T04:28:40.493Z,69.04
2022-12-15T04:31:33.901Z,69.19
2022-12-15T04:34:26.634Z,69.68
2022-12-15T04:37:13.084Z,69.96
2022-12-15T04:40:03.539Z,69.22
2022-12-15T04:42:51.272Z,68.68
2022-12-15T04:45:41.069Z,67.84
2022-12-15T04:48:26.474Z,68.92
2022-12-15T04:51:12.189Z,68.44
2022-12-15T04:53:58.123Z,69.82
2022-12-15T04:56:43.995Z,69.47
2022-12-15T04:59:29.224Z,69.64
2022-12-15T05:02:14.787Z,70.96
2022-12-15T05:05:00.631Z,71.61
2022-12-15T05:07:46.430Z,70.98
2022-12-15T05:10:31.813Z,70.34
2022-12-15T05:13:27.442Z,70.27
2022-12-15T05:16:12.854Z,70.54
2022-12-15T05:18:58.694Z,71.38
2022-12-15T05:21:44.550Z,71.90
2022-12-15T05:24:30.194Z,71.32
2022-12-15T05:27:15.504Z,71.76
2022-12-15T05:30:01.019Z,71.66
2022-12-15T05:32:27.873Z,71.75
2022-12-15T05:34:54.855Z,71.93
2022-12-15T05:37:21.760Z,72.41
2022-12-15T05:39:48.671Z,72.73
2022-12-15T05:42:15.662Z,72.49
2022-12-15T05:44:43.279Z,73.53
2022-12-15T05:47:11.916Z,75.23
2022-12-15T05:49:38.910Z,76.14
2022-12-15T05:52:06.661Z,76.90
2022-12-15T05:54:33.549Z,77.67
2022-12-15T05:57:00.449Z,78.34
2022-12-15T05:59:27.372Z,78.81
2022-12-15T06:01:54.603Z,77.37
2022-12-15T06:04:21.630Z,77.00
2022-12-15T06:06:50.032Z,76.67
2022-12-15T06:09:16.970Z,77.35
2022-12-15T06:11:44.874Z,78.73
2022-12-15T06:14:12.006Z,78.08
2022-12-15T06:16:49.827Z,78.39
2022-12-15T06:19:20.031Z,77.42
2022-12-15T06:21:47.100Z,77.41
2022-12-15T06:24:14.177Z,76.80
2022-12-15T06:26:41.614Z,76.07
2022-12-15T06:29:12.340Z,75.74
2022-12-15T06:31:41.380Z,76.67
2022-12-15T06:34:13.779Z,76.42
2022-12-15T06:36:41.461Z,75.07
2022-12-15T06:39:14.161Z,75.47
2022-12-15T06:41:42.104Z,75.42
2022-12-15T06:44:14.641Z,74.91
2022-12-15T06:46:41.926Z,75.09
2022-12-15T06:49:09.328Z,76.07
2022-12-15T06:51:36.644Z,76.90
2022-12-15T06:54:03.934Z,76.27
2022-12-15T06:56:37.607Z,75.52
2022-12-15T06:59:07.655Z,75.13
2022-12-15T07:01:35.293Z,74.92
2022-12-15T07:04:04.877Z,74.97
2022-12-15T07:06:37.445Z,74.07
2022-12-15T07:09:08.063Z,74.28
2022-12-15T07:11:35.484Z,73.39
2022-12-15T07:14:03.132Z,73.43
2022-12-15T07:16:31.074Z,74.16
2022-12-15T07:18:58.160Z,73.60
2022-12-15T07:21:25.049Z,74.13
2022-12-15T07:23:55.398Z,74.01
2022-12-15T07:26:24.025Z,73.43
2022-12-15T07:28:51.046Z,73.97
2022-12-15T07:31:18.199Z,72.98
2022-12-15T07:33:45.536Z,72.49
2022-12-15T07:36:13.230Z,74.87
2022-12-15T07:38:40.289Z,76.06
2022-12-15T07:41:09.409Z,75.44
2022-12-15T07:43:37.416Z,75.43
2022-12-15T07:46:06.179Z,75.28
2022-12-15T07:48:33.995Z,75.49
2022-12-15T07:51:17.074Z,74.26
2022-12-15T07:53:47.460Z,74.90
2022-12-15T07:56:15.409Z,75.26
2022-12-15T07:58:42.751Z,75.42
2022-12-15T08:01:13.701Z,74.45
2022-12-15T08:03:41.318Z,74.20
2022-12-15T08:06:11.979Z,74.25
2022-12-15T08:08:40.586Z,74.09
2022-12-15T08:11:14.343Z,74.35
2022-12-15T08:16:31.503Z,74.90
2022-12-15T08:18:58.571Z,75.54
2022-12-15T08:21:25.611Z,75.48
2022-12-15T08:23:52.701Z,74.65
2022-12-15T08:26:22.632Z,74.50
2022-12-15T08:28:54.010Z,74.43
2022-12-15T08:31:23.746Z,74.95
2022-12-15T08:33:51.180Z,75.40
2022-12-15T08:36:20.303Z,75.62
2022-12-15T08:38:47.803Z,75.59
2022-12-15T08:41:31.336Z,74.89
2022-12-15T08:44:00.335Z,74.87
2022-12-15T08:46:35.046Z,74.19
2022-12-15T08:49:03.693Z,73.35
2022-12-15T08:51:33.284Z,72.53
2022-12-15T08:54:01.302Z,72.70
2022-12-15T08:56:29.859Z,71.47
2022-12-15T08:59:02.136Z,71.21
2022-12-15T09:01:32.669Z,71.83
2022-12-15T09:04:01.410Z,69.93
2022-12-15T09:06:35.316Z,69.19
2022-12-15T09:09:07.327Z,68.26
2022-12-15T09:11:34.735Z,67.56
2022-12-15T09:14:01.785Z,66.38
2022-12-15T09:16:29.300Z,64.92
2022-12-15T09:18:59.363Z,64.68
2022-12-15T09:21:29.916Z,65.26
2022-12-15T09:24:01.339Z,64.39
2022-12-15T09:26:34.040Z,65.63
2022-12-15T09:29:02.146Z,64.97
2022-12-15T09:31:33.005Z,63.31
2022-12-15T09:34:01.146Z,59.25
2022-12-15T09:36:30.404Z,58.03
2022-12-15T09:38:57.332Z,56.92
2022-12-15T09:41:33.179Z,56.54
2022-12-15T09:44:17.835Z,56.60
2022-12-15T09:47:00.998Z,56.32
2022-12-15T09:49:58.043Z,58.12
2022-12-15T09:52:54.730Z,58.04
2022-12-15T09:55:26.098Z,57.82
2022-12-15T09:58:15.849Z,57.07
2022-12-15T10:00:56.938Z,57.26
2022-12-15T10:03:59.132Z,55.31
2022-12-15T10:06:38.572Z,53.56
2022-12-15T10:09:23.332Z,52.53
2022-12-15T10:12:10.976Z,51.06
2022-12-15T10:14:49.926Z,51.59
2022-12-15T10:17:52.261Z,53.83
2022-12-15T10:20:26.270Z,54.91
2022-12-15T10:22:55.542Z,54.35
2022-12-15T10:25:32.159Z,55.19
2022-12-15T10:28:20.051Z,55.03
2022-12-15T10:31:09.617Z,49.75
2022-12-15T10:33:39.915Z,47.19
2022-12-15T10:36:13.947Z,43.49
2022-12-15T10:38:45.551Z,44.61
2022-12-15T10:41:27.819Z,44.64
2022-12-15T10:43:55.209Z,43.09
2022-12-15T10:46:27.546Z,42.25
2022-12-15T10:49:24.557Z,39.68
2022-12-15T10:51:58.138Z,39.90
2022-12-15T10:54:31.571Z,39.88
2022-12-15T10:57:03.020Z,38.67
2022-12-15T10:59:36.860Z,38.38
2022-12-15T11:02:25.794Z,39.02
2022-12-15T11:05:20.764Z,42.58
2022-12-15T11:08:16.255Z,41.74
2022-12-15T11:11:16.745Z,40.99
2022-12-15T11:14:07.297Z,42.19
2022-12-15T11:16:34.215Z,44.26
2022-12-15T11:19:49.188Z,43.45
2022-12-15T11:22:40.216Z,40.72
2022-12-15T11:25:26.584Z,43.00
2022-12-15T11:27:57.840Z,41.81
2022-12-15T11:30:33.732Z,39.56
2022-12-15T11:33:02.118Z,41.25
2022-12-15T11:36:02.530Z,43.00
2022-12-15T11:39:24.287Z,44.20
2022-12-15T11:41:59.268Z,48.72
2022-12-15T11:44:41.277Z,50.07
2022-12-15T11:47:17.294Z,53.77
2022-12-15T11:50:11.942Z,55.21
2022-12-15T11:53:06.715Z,56.24
2022-12-15T11:56:21.564Z,56.13
2022-12-15T11:59:12.177Z,59.12
2022-12-15T12:02:02.781Z,59.88
2022-12-15T12:04:56.800Z,61.09
2022-12-15T12:07:44.448Z,63.88
2022-12-15T12:10:27.524Z,63.90
2022-12-15T12:13:28.144Z,66.14
2022-12-15T12:16:26.195Z,66.34
2022-12-15T12:19:06.767Z,66.90
2022-12-15T12:21:50.970Z,66.51
2022-12-15T12:24:39.230Z,68.48
2022-12-15T12:28:03.729Z,69.71
2022-12-15T12:30:41.506Z,70.88
2022-12-15T12:33:16.125Z,71.06
2022-12-15T12:36:13.541Z,69.61
2022-12-15T12:38:56.067Z,70.01
2022-12-15T12:41:51.396Z,69.75
2022-12-15T12:44:30.902Z,70.51
2022-12-15T12:47:07.317Z,69.95
2022-12-15T12:49:43.999Z,69.22
